createdAt,value
2023-02-21T00:02:11.177Z,33.90
2023-02-21T00:04:31.159Z,30.15
2023-02-21T00:06:53.901Z,41.03
2023-02-21T00:09:19.805Z,35.70
2023-02-21T00:11:42.584Z,39.92
2023-02-21T00:14:02.471Z,30.17
2023-02-21T00:16:25.275Z,29.85
2023-02-21T00:18:45.602Z,33.13
2023-02-21T00:21:08.394Z,33.78
2023-02-21T00:23:31.254Z,39.20
2023-02-21T00:25:54.026Z,32.05
2023-02-21T00:28:19.280Z,25.63
2023-02-21T00:30:39.393Z,25.52
2023-02-21T00:32:59.886Z,25.27
2023-02-21T00:35:20.128Z,37.80
2023-02-21T00:37:39.986Z,30.90
2023-02-21T00:39:59.964Z,25.58
2023-02-21T00:42:22.963Z,37.42
2023-02-21T00:44:45.726Z,24.77
2023-02-21T00:47:08.463Z,22.52
2023-02-21T00:49:28.487Z,26.63
2023-02-21T00:51:48.505Z,19.63
2023-02-21T00:54:08.291Z,28.95
2023-02-21T00:56:31.224Z,19.90
2023-02-21T00:58:54.800Z,24.42
2023-02-21T01:01:16.113Z,26.08
2023-02-21T01:03:40.724Z,20.73
2023-02-21T01:06:03.545Z,23.15
2023-02-21T01:08:25.887Z,25.05
2023-02-21T01:10:47.970Z,30.73
2023-02-21T01:13:28.281Z,23.13
2023-02-21T01:15:50.951Z,28.33
2023-02-21T01:18:16.115Z,26.77
2023-02-21T01:20:37.326Z,23.17
2023-02-21T01:22:58.800Z,25.65
2023-02-21T01:25:22.933Z,26.25
2023-02-21T01:27:51.355Z,20.45
2023-02-21T01:30:13.327Z,27.75
2023-02-21T01:32:34.683Z,20.75
2023-02-21T01:35:13.852Z,25.52
2023-02-21T01:37:33.683Z,22.25
2023-02-21T01:39:59.521Z,23.27
2023-02-21T01:42:22.154Z,17.83
2023-02-21T01:44:44.929Z,17.83
2023-02-21T01:47:04.860Z,17.90
2023-02-21T01:49:32.991Z,20.52
2023-02-21T01:51:55.073Z,25.80
2023-02-21T01:54:18.254Z,16.40
2023-02-21T01:56:41.402Z,18.15
2023-02-21T01:59:02.405Z,18.90
2023-02-21T02:01:31.159Z,15.98
2023-02-21T02:03:52.520Z,17.45
2023-02-21T02:06:32.105Z,11.32
2023-02-21T02:08:52.599Z,17.85
2023-02-21T02:11:19.626Z,14.05
2023-02-21T02:13:37.461Z,11.57
2023-02-21T02:15:51.380Z,13.88
2023-02-21T02:18:02.151Z,19.85
2023-02-21T02:20:21.693Z,12.20
2023-02-21T02:22:37.023Z,14.35
2023-02-21T02:24:46.792Z,14.20
2023-02-21T02:27:00.464Z,14.02
2023-02-21T02:29:04.844Z,13.32
2023-02-21T02:33:14.103Z,13.38
2023-02-21T02:35:33.426Z,13.30
2023-02-21T02:37:40.697Z,14.90
2023-02-21T02:40:04.364Z,13.07
2023-02-21T02:42:16.993Z,14.60
2023-02-21T02:44:18.378Z,13.13
2023-02-21T02:46:33.245Z,10.35
2023-02-21T02:48:38.787Z,14.23
2023-02-21T02:50:45.267Z,11.20
2023-02-21T02:52:50.468Z,10.27
2023-02-21T02:55:06.137Z,13.52
2023-02-21T02:57:10.609Z,14.18
2023-02-21T02:59:33.405Z,11.18
2023-02-21T03:01:50.068Z,9.30
2023-02-21T03:04:13.121Z,9.27
2023-02-21T03:06:25.582Z,11.63
2023-02-21T03:08:43.679Z,9.25
2023-02-21T03:10:45.092Z,8.98
2023-02-21T03:12:58.151Z,8.27
2023-02-21T03:15:11.283Z,8.27
2023-02-21T03:17:14.664Z,8.70
2023-02-21T03:19:20.883Z,10.25
2023-02-21T03:21:27.027Z,6.93
2023-02-21T03:23:29.905Z,10.07
2023-02-21T03:25:32.561Z,8.98
2023-02-21T03:27:37.981Z,9.68
2023-02-21T03:29:43.289Z,8.93
2023-02-21T03:31:55.029Z,8.57
2023-02-21T03:33:59.425Z,8.98
2023-02-21T03:36:07.199Z,8.00
2023-02-21T03:38:10.276Z,8.85
2023-02-21T03:40:16.852Z,8.10
2023-02-21T03:42:18.417Z,9.93
2023-02-21T03:44:22.406Z,10.13
2023-02-21T03:48:32.574Z,11.38
2023-02-21T03:50:37.209Z,8.70
2023-02-21T03:52:38.730Z,11.70
2023-02-21T03:56:46.930Z,10.02
2023-02-21T03:58:48.342Z,8.38
2023-02-21T04:00:51.573Z,11.30
2023-02-21T04:02:56.443Z,10.63
2023-02-21T04:05:01.279Z,11.20
2023-02-21T04:07:06.936Z,8.70
2023-02-21T04:09:13.440Z,11.68
2023-02-21T04:11:19.678Z,10.27
2023-02-21T04:13:24.889Z,10.35
2023-02-21T04:15:30.773Z,10.82
2023-02-21T04:17:36.568Z,12.70
2023-02-21T04:19:42.654Z,12.48
2023-02-21T04:21:46.313Z,11.10
2023-02-21T04:23:52.594Z,10.85
2023-02-21T04:26:14.774Z,10.77
2023-02-21T04:28:21.347Z,12.00
2023-02-21T04:30:28.021Z,12.88
2023-02-21T04:32:29.949Z,11.65
2023-02-21T04:34:33.453Z,13.32
2023-02-21T04:36:39.154Z,10.60
2023-02-21T04:38:44.808Z,10.20
2023-02-21T04:40:46.494Z,10.13
2023-02-21T04:42:48.062Z,9.43
2023-02-21T04:45:08.484Z,12.48
2023-02-21T04:47:09.920Z,12.25
2023-02-21T04:49:14.300Z,9.90
2023-02-21T04:51:20.366Z,11.43
2023-02-21T04:53:24.754Z,13.98
2023-02-21T04:55:26.179Z,13.07
2023-02-21T04:57:30.452Z,13.40
2023-02-21T04:59:56.365Z,12.88
2023-02-21T05:01:57.893Z,13.25
2023-02-21T05:04:05.398Z,13.93
2023-02-21T05:06:06.874Z,12.82
2023-02-21T05:08:08.382Z,11.88
2023-02-21T05:10:10.326Z,11.07
2023-02-21T05:12:14.401Z,10.90
2023-02-21T05:14:19.044Z,10.63
2023-02-21T05:16:20.672Z,12.60
2023-02-21T05:18:28.337Z,12.70
2023-02-21T05:20:29.829Z,10.88
2023-02-21T05:22:34.407Z,14.85
2023-02-21T05:24:42.467Z,13.13
2023-02-21T05:27:02.512Z,14.25
2023-02-21T05:29:06.557Z,13.50
2023-02-21T05:31:10.956Z,15.07
2023-02-21T05:33:12.425Z,13.20
2023-02-21T05:35:15.140Z,13.60
2023-02-21T05:37:17.388Z,13.25
2023-02-21T05:39:19.113Z,13.88
2023-02-21T05:41:23.753Z,15.18
2023-02-21T05:43:26.456Z,17.60
2023-02-21T05:45:35.409Z,17.02
2023-02-21T05:47:42.864Z,18.50
2023-02-21T05:49:44.416Z,16.65
2023-02-21T05:51:46.121Z,19.05
2023-02-21T05:53:47.794Z,16.80
2023-02-21T05:55:55.073Z,15.80
2023-02-21T05:57:56.662Z,18.63
2023-02-21T05:59:58.085Z,21.40
2023-02-21T06:01:59.520Z,19.80
2023-02-21T06:04:01.022Z,16.98
2023-02-21T06:06:02.828Z,18.55
2023-02-21T06:08:04.483Z,16.75
2023-02-21T06:10:08.898Z,18.67
2023-02-21T06:12:10.296Z,20.02
2023-02-21T06:14:17.213Z,17.55
2023-02-21T06:16:18.678Z,18.55
2023-02-21T06:18:20.254Z,18.15
2023-02-21T06:20:40.265Z,16.27
2023-02-21T06:22:41.769Z,16.80
2023-02-21T06:24:43.521Z,17.02
2023-02-21T06:26:47.750Z,17.60
2023-02-21T06:28:49.357Z,16.60
2023-02-21T06:30:53.822Z,18.80
2023-02-21T06:32:55.545Z,16.65
2023-02-21T06:34:59.894Z,18.10
2023-02-21T06:39:05.556Z,16.67
2023-02-21T06:41:07.637Z,16.25
2023-02-21T06:43:09.296Z,16.65
2023-02-21T06:45:29.628Z,15.68
2023-02-21T06:47:31.092Z,17.02
2023-02-21T06:49:35.137Z,14.48
2023-02-21T06:51:43.082Z,12.38
2023-02-21T06:53:45.072Z,14.68
2023-02-21T06:55:46.468Z,15.02
2023-02-21T06:59:54.634Z,11.02
2023-02-21T07:01:58.961Z,11.77
2023-02-21T07:04:00.481Z,13.07
2023-02-21T07:06:04.636Z,14.10
2023-02-21T07:08:09.105Z,13.15
2023-02-21T07:10:17.129Z,11.90
2023-02-21T07:12:20.162Z,12.35
2023-02-21T07:14:23.640Z,10.98
2023-02-21T07:16:31.784Z,12.00
2023-02-21T07:18:35.401Z,13.88
2023-02-21T07:20:41.647Z,12.95
2023-02-21T07:22:43.647Z,13.40
2023-02-21T07:24:46.672Z,13.88
2023-02-21T07:26:59.542Z,14.68
2023-02-21T07:29:07.028Z,14.50
2023-02-21T07:31:11.525Z,11.68
2023-02-21T07:35:18.689Z,8.43
2023-02-21T07:37:27.865Z,7.18
2023-02-21T07:39:31.352Z,5.00
2023-02-21T07:41:38.069Z,9.98
2023-02-21T07:44:00.346Z,7.68
2023-02-21T07:46:02.597Z,9.13
2023-02-21T07:48:22.938Z,9.40
2023-02-21T07:50:24.493Z,8.18
2023-02-21T07:52:25.990Z,5.80
2023-02-21T07:54:28.209Z,7.82
2023-02-21T07:56:29.708Z,7.63
2023-02-21T07:58:37.501Z,9.07
2023-02-21T08:00:41.791Z,13.68
2023-02-21T08:02:49.115Z,13.32
2023-02-21T08:07:10.829Z,8.52
2023-02-21T08:09:18.649Z,13.57
2023-02-21T08:11:20.093Z,11.23
2023-02-21T08:13:24.158Z,11.45
2023-02-21T08:15:29.308Z,10.15
2023-02-21T08:17:30.847Z,9.00
2023-02-21T08:19:32.397Z,4.47
2023-02-21T08:21:33.815Z,3.83
2023-02-21T08:23:38.270Z,5.05
2023-02-21T08:25:42.724Z,6.57
2023-02-21T08:27:48.291Z,8.00
2023-02-21T08:29:52.913Z,6.30
2023-02-21T08:31:54.331Z,7.60
2023-02-21T08:33:55.838Z,6.50
2023-02-21T08:36:00.374Z,8.95
2023-02-21T08:38:08.507Z,6.75
2023-02-21T08:40:14.062Z,6.30
2023-02-21T08:42:15.835Z,7.47
2023-02-21T08:44:18.193Z,6.65
2023-02-21T08:46:22.355Z,5.95
2023-02-21T08:48:23.792Z,5.85
2023-02-21T08:50:26.825Z,7.95
2023-02-21T08:52:31.491Z,12.85
2023-02-21T08:54:36.453Z,11.55
2023-02-21T08:56:40.902Z,13.90
2023-02-21T08:58:48.694Z,14.48
2023-02-21T09:00:50.241Z,11.48
2023-02-21T09:02:54.952Z,6.65
2023-02-21T09:04:59.571Z,6.40
2023-02-21T09:07:00.978Z,3.95
2023-02-21T09:09:02.580Z,3.78
2023-02-21T09:11:07.522Z,3.60
2023-02-21T09:13:17.980Z,2.25
2023-02-21T09:17:43.576Z,1.77
2023-02-21T09:19:45.136Z,2.92
2023-02-21T09:23:59.337Z,2.58
2023-02-21T09:26:01.208Z,5.43
2023-02-21T09:28:02.701Z,5.25
2023-02-21T09:30:15.319Z,3.35
2023-02-21T09:32:16.821Z,2.80
2023-02-21T09:34:22.266Z,2.97
2023-02-21T09:36:27.084Z,2.30
2023-02-21T09:38:34.440Z,2.83
2023-02-21T09:40:40.000Z,4.03
2023-02-21T09:42:44.354Z,4.68
2023-02-21T09:44:48.800Z,5.93
2023-02-21T09:46:52.937Z,7.97
2023-02-21T09:49:16.186Z,8.07
2023-02-21T09:51:17.798Z,8.73
2023-02-21T09:53:42.524Z,8.25
2023-02-21T09:55:44.292Z,7.10
2023-02-21T09:57:45.849Z,11.52
2023-02-21T09:59:48.546Z,11.13
2023-02-21T10:02:10.822Z,10.80
2023-02-21T10:04:18.696Z,8.90
2023-02-21T10:06:43.382Z,10.05
2023-02-21T10:08:57.498Z,12.10
2023-02-21T10:11:07.686Z,8.00
2023-02-21T10:13:31.464Z,8.60
2023-02-21T10:15:38.008Z,7.65
2023-02-21T10:17:59.131Z,4.00
2023-02-21T10:20:06.328Z,5.97
2023-02-21T10:22:20.686Z,5.75
2023-02-21T10:24:26.873Z,7.07
2023-02-21T10:26:36.094Z,2.97
2023-02-21T10:28:38.734Z,1.52
2023-02-21T10:30:44.503Z,1.30
2023-02-21T10:32:49.284Z,2.45
2023-02-21T10:34:53.163Z,2.53
2023-02-21T10:37:05.510Z,1.73
2023-02-21T10:39:13.483Z,3.50
2023-02-21T10:41:16.819Z,2.28
2023-02-21T10:43:29.286Z,6.43
2023-02-21T10:45:57.589Z,3.22
2023-02-21T10:48:07.669Z,1.60
2023-02-21T10:50:13.081Z,1.98
2023-02-21T10:52:21.557Z,1.63
2023-02-21T10:54:24.511Z,4.90
2023-02-21T10:56:27.281Z,3.38
2023-02-21T10:58:30.558Z,3.47
2023-02-21T11:00:39.614Z,1.70
2023-02-21T11:02:42.633Z,1.55
2023-02-21T11:04:44.538Z,2.47
2023-02-21T11:06:48.908Z,1.20
2023-02-21T11:10:55.153Z,0.50
2023-02-21T11:13:04.623Z,0.40
2023-02-21T11:15:15.979Z,0.68
2023-02-21T11:17:20.514Z,0.60
2023-02-21T11:19:25.048Z,0.20
2023-02-21T11:21:29.425Z,0.30
2023-02-21T11:23:31.614Z,1.50
2023-02-21T11:25:40.025Z,0.43
2023-02-21T11:28:07.971Z,0.95
2023-02-21T11:30:20.119Z,0.40
2023-02-21T11:32:32.791Z,2.08
2023-02-21T11:34:46.256Z,2.55
2023-02-21T11:36:50.714Z,0.40
2023-02-21T11:39:06.422Z,2.25
2023-02-21T11:41:21.061Z,5.55
2023-02-21T11:43:26.789Z,4.93
2023-02-21T11:45:30.554Z,6.72
2023-02-21T11:47:51.751Z,1.42
2023-02-21T11:50:01.562Z,1.63
2023-02-21T11:52:06.574Z,1.85
2023-02-21T11:54:14.049Z,0.70
2023-02-21T11:56:34.577Z,0.77
2023-02-21T11:58:58.056Z,2.30
2023-02-21T12:01:13.283Z,2.28
2023-02-21T12:03:41.585Z,2.10
2023-02-21T12:05:46.075Z,3.42
2023-02-21T12:07:47.624Z,1.55
2023-02-21T12:09:57.830Z,0.95
2023-02-21T12:12:08.352Z,0.85
2023-02-21T12:14:45.534Z,0.80
2023-02-21T12:16:47.160Z,0.55
2023-02-21T12:19:07.409Z,0.65
2023-02-21T12:21:34.610Z,0.75
2023-02-21T12:23:54.138Z,1.05
2023-02-21T12:25:55.584Z,0.77
2023-02-21T12:28:09.781Z,0.77
2023-02-21T12:30:49.837Z,1.95
2023-02-21T12:32:55.397Z,0.80
2023-02-21T12:35:02.405Z,1.55
2023-02-21T12:37:07.137Z,1.08
2023-02-21T12:39:22.417Z,0.95
2023-02-21T12:41:26.606Z,0.88
2023-02-21T12:45:44.902Z,1.10
2023-02-21T12:48:13.657Z,1.20
2023-02-21T12:50:21.337Z,1.30
2023-02-21T12:52:30.564Z,1.27
2023-02-21T12:54:39.671Z,1.17
2023-02-21T12:56:57.400Z,1.23
2023-02-21T12:59:18.617Z,0.90
2023-02-21T13:01:28.915Z,2.92
2023-02-21T13:03:51.921Z,1.55
2023-02-21T13:05:58.622Z,1.23
2023-02-21T13:08:01.927Z,1.65
2023-02-21T13:10:09.597Z,1.77
2023-02-21T13:12:20.343Z,1.98
2023-02-21T13:14:26.140Z,2.33
2023-02-21T13:16:46.301Z,2.20
2023-02-21T13:19:18.356Z,2.45
2023-02-21T13:21:26.382Z,1.58
2023-02-21T13:23:34.003Z,2.13
2023-02-21T13:25:57.194Z,3.53
2023-02-21T13:28:24.502Z,2.85
2023-02-21T13:30:33.415Z,2.85
2023-02-21T13:32:52.248Z,4.03
2023-02-21T13:35:02.141Z,2.53
2023-02-21T13:37:09.830Z,4.35
2023-02-21T13:39:36.811Z,2.97
2023-02-21T13:41:52.096Z,3.53
2023-02-21T13:43:55.967Z,3.42
2023-02-21T13:46:22.491Z,4.85
2023-02-21T13:48:44.120Z,3.58
2023-02-21T13:50:51.786Z,4.70
2023-02-21T13:53:04.925Z,4.93
2023-02-21T13:55:16.972Z,4.10
2023-02-21T13:57:35.684Z,3.65
2023-02-21T13:59:38.515Z,4.07
2023-02-21T14:01:41.633Z,3.78
2023-02-21T14:03:43.259Z,4.25
2023-02-21T14:05:44.968Z,4.13
2023-02-21T14:07:55.665Z,4.30
2023-02-21T14:09:59.947Z,4.07
2023-02-21T14:12:05.136Z,4.22
2023-02-21T14:14:19.985Z,4.53
2023-02-21T14:16:59.345Z,4.43
2023-02-21T14:19:07.501Z,4.53
2023-02-21T14:21:18.132Z,4.57
2023-02-21T14:23:32.651Z,3.85
2023-02-21T14:25:34.614Z,4.55
2023-02-21T14:27:38.771Z,5.47
2023-02-21T14:29:41.281Z,6.38
2023-02-21T14:31:45.706Z,4.45
2023-02-21T14:33:47.508Z,5.68
2023-02-21T14:35:54.202Z,5.45
2023-02-21T14:38:02.581Z,6.63
2023-02-21T14:40:26.745Z,6.38
2023-02-21T14:42:35.827Z,6.53
2023-02-21T14:45:01.757Z,5.05
2023-02-21T14:47:17.531Z,4.45
2023-02-21T14:49:18.961Z,7.88
2023-02-21T14:51:42.172Z,6.03
2023-02-21T14:54:19.540Z,6.22
2023-02-21T14:56:44.068Z,4.32
2023-02-21T14:59:07.040Z,7.05
2023-02-21T15:01:27.356Z,6.55
2023-02-21T15:03:52.248Z,6.00
2023-02-21T15:06:03.407Z,7.47
2023-02-21T15:08:17.060Z,5.90
2023-02-21T15:10:21.070Z,6.43
2023-02-21T15:12:25.165Z,6.18
2023-02-21T15:14:50.026Z,8.30
2023-02-21T15:16:56.100Z,6.30
2023-02-21T15:18:59.974Z,7.70
2023-02-21T15:21:10.521Z,7.15
2023-02-21T15:23:16.332Z,6.05
2023-02-21T15:25:21.055Z,7.88
2023-02-21T15:27:51.009Z,7.20
2023-02-21T15:30:04.511Z,8.88
2023-02-21T15:32:07.055Z,12.13
2023-02-21T15:34:26.154Z,17.40
2023-02-21T15:36:31.652Z,12.77
2023-02-21T15:38:59.402Z,10.23
2023-02-21T15:41:03.550Z,11.63
2023-02-21T15:45:16.043Z,10.52
2023-02-21T15:47:36.264Z,12.02
2023-02-21T15:49:37.706Z,11.70
2023-02-21T15:51:40.189Z,13.25
2023-02-21T15:54:06.042Z,10.32
2023-02-21T15:56:21.541Z,13.20
2023-02-21T15:58:24.960Z,8.90
2023-02-21T16:00:26.477Z,10.60
2023-02-21T16:02:32.425Z,11.23
2023-02-21T16:04:38.333Z,13.68
2023-02-21T16:06:45.666Z,8.57
2023-02-21T16:09:07.989Z,8.82
2023-02-21T16:11:09.615Z,11.70
2023-02-21T16:13:11.529Z,9.75
2023-02-21T16:15:18.727Z,11.90
2023-02-21T16:17:25.707Z,12.95
2023-02-21T16:21:29.535Z,10.88
2023-02-21T16:23:49.563Z,10.50
2023-02-21T16:26:19.100Z,8.00
2023-02-21T16:28:32.641Z,10.82
2023-02-21T16:30:41.778Z,8.57
2023-02-21T16:32:49.231Z,13.88
2023-02-21T16:34:56.540Z,13.35
2023-02-21T16:37:04.634Z,10.43
2023-02-21T16:39:11.971Z,10.63
2023-02-21T16:41:18.355Z,15.13
2023-02-21T16:43:40.324Z,13.75
2023-02-21T16:45:42.952Z,7.95
2023-02-21T16:47:50.307Z,13.02
2023-02-21T16:49:53.555Z,10.02
2023-02-21T16:51:57.269Z,12.52
2023-02-21T16:54:00.988Z,14.93
2023-02-21T16:56:05.324Z,10.02
2023-02-21T16:58:22.705Z,14.02
2023-02-21T17:02:31.109Z,12.43
2023-02-21T17:04:37.385Z,11.98
2023-02-21T17:06:41.693Z,14.63
2023-02-21T17:08:46.047Z,12.00
2023-02-21T17:10:53.392Z,14.55
2023-02-21T17:12:57.431Z,18.13
2023-02-21T17:14:59.179Z,15.82
2023-02-21T17:17:06.630Z,12.40
2023-02-21T17:19:12.416Z,12.48
2023-02-21T17:21:14.397Z,16.02
2023-02-21T17:23:16.100Z,13.93
2023-02-21T17:25:18.335Z,15.88
2023-02-21T17:27:19.994Z,15.82
2023-02-21T17:29:25.465Z,16.52
2023-02-21T17:31:26.950Z,15.20
2023-02-21T17:33:28.414Z,16.52
2023-02-21T17:35:35.609Z,18.83
2023-02-21T17:37:39.960Z,22.40
2023-02-21T17:39:41.539Z,17.77
2023-02-21T17:41:49.820Z,21.30
2023-02-21T17:43:51.343Z,15.98
2023-02-21T17:45:52.976Z,19.27
2023-02-21T17:50:03.747Z,19.48
2023-02-21T17:52:08.213Z,19.67
2023-02-21T17:54:09.634Z,23.48
2023-02-21T17:56:16.678Z,26.55
2023-02-21T17:58:20.836Z,30.02
2023-02-21T18:02:29.215Z,31.13
2023-02-21T18:04:33.761Z,24.90
2023-02-21T18:06:38.179Z,23.75
2023-02-21T18:10:47.077Z,24.17
2023-02-21T18:12:51.716Z,20.83
2023-02-21T18:14:59.358Z,24.88
2023-02-21T18:17:00.851Z,21.17
2023-02-21T18:19:08.205Z,21.33
2023-02-21T18:21:13.091Z,25.13
2023-02-21T18:23:15.422Z,22.52
2023-02-21T18:25:21.983Z,23.50
2023-02-21T18:27:42.106Z,19.90
2023-02-21T18:29:43.597Z,21.38
2023-02-21T18:31:45.186Z,23.80
2023-02-21T18:33:52.706Z,22.50
2023-02-21T18:35:57.664Z,24.25
2023-02-21T18:37:59.139Z,23.05
2023-02-21T18:40:05.424Z,27.95
2023-02-21T18:42:09.757Z,21.60
2023-02-21T18:44:14.219Z,22.83
2023-02-21T18:48:20.781Z,24.67
2023-02-21T18:50:25.174Z,32.15
2023-02-21T18:52:32.494Z,25.10
2023-02-21T18:54:36.851Z,23.67
2023-02-21T18:56:51.493Z,25.23
2023-02-21T18:58:55.818Z,21.45
2023-02-21T19:00:57.298Z,26.45
2023-02-21T19:03:17.694Z,25.85
2023-02-21T19:05:20.453Z,25.55
2023-02-21T19:07:24.695Z,24.20
2023-02-21T19:09:26.302Z,25.05
2023-02-21T19:11:27.730Z,31.77
2023-02-21T19:13:49.882Z,23.80
2023-02-21T19:15:51.697Z,27.35
2023-02-21T19:17:53.146Z,23.90
2023-02-21T19:19:58.171Z,27.02
2023-02-21T19:21:59.970Z,33.15
2023-02-21T19:24:04.613Z,32.38
2023-02-21T19:26:06.314Z,26.38
2023-02-21T19:28:10.616Z,31.38
2023-02-21T19:30:20.000Z,28.02
2023-02-21T19:32:24.397Z,30.55
2023-02-21T19:34:29.368Z,30.60
2023-02-21T19:36:32.578Z,30.50
2023-02-21T19:38:39.074Z,32.97
2023-02-21T19:40:44.301Z,33.42
2023-02-21T19:42:50.642Z,29.40
2023-02-21T19:44:56.840Z,31.17
2023-02-21T19:47:06.919Z,30.17
2023-02-21T19:49:18.470Z,31.65
2023-02-21T19:51:24.804Z,28.35
2023-02-21T19:53:27.904Z,29.67
2023-02-21T19:55:34.587Z,32.50
2023-02-21T19:57:41.532Z,34.67
2023-02-21T19:59:51.397Z,31.38
2023-02-21T20:01:57.453Z,28.45
2023-02-21T20:04:00.989Z,33.90
2023-02-21T20:06:04.066Z,33.25
2023-02-21T20:08:06.252Z,32.60
2023-02-21T20:10:11.056Z,30.38
2023-02-21T20:12:12.605Z,31.20
2023-02-21T20:14:14.720Z,31.45
2023-02-21T20:16:40.054Z,38.17
2023-02-21T20:18:42.208Z,34.20
2023-02-21T20:20:43.731Z,32.38
2023-02-21T20:22:47.787Z,35.85
2023-02-21T20:24:52.032Z,37.08
2023-02-21T20:26:54.136Z,35.67
2023-02-21T20:28:58.604Z,37.17
2023-02-21T20:31:03.136Z,39.42
2023-02-21T20:33:07.740Z,35.20
2023-02-21T20:39:23.530Z,39.63
2023-02-21T20:41:31.216Z,34.33
2023-02-21T20:43:38.524Z,36.13
2023-02-21T20:45:40.109Z,34.75
2023-02-21T20:47:41.643Z,32.33
2023-02-21T20:49:44.100Z,33.83
2023-02-21T20:51:48.432Z,32.30
2023-02-21T20:54:11.010Z,33.45
2023-02-21T20:58:21.436Z,29.13
2023-02-21T21:00:30.408Z,30.67
2023-02-21T21:02:32.242Z,33.75
2023-02-21T21:04:35.749Z,40.63
2023-02-21T21:06:43.505Z,29.92
2023-02-21T21:09:03.949Z,31.02
2023-02-21T21:11:08.992Z,33.08
2023-02-21T21:13:10.834Z,30.88
2023-02-21T21:15:13.089Z,30.17
2023-02-21T21:17:18.568Z,30.65
2023-02-21T21:19:21.650Z,22.15
2023-02-21T21:21:28.487Z,25.88
2023-02-21T21:23:48.753Z,30.90
2023-02-21T21:25:53.129Z,26.45
2023-02-21T21:27:56.257Z,26.33
2023-02-21T21:30:01.622Z,24.65
2023-02-21T21:32:06.423Z,26.50
2023-02-21T21:34:09.162Z,24.40
2023-02-21T21:36:13.142Z,29.83
2023-02-21T21:40:21.536Z,28.42
2023-02-21T21:42:27.281Z,32.05
2023-02-21T21:44:29.910Z,35.47
2023-02-21T21:46:32.882Z,33.00
2023-02-21T21:48:37.469Z,32.47
2023-02-21T21:50:44.817Z,29.75
2023-02-21T21:52:51.101Z,34.35
2023-02-21T21:54:56.539Z,38.00
2023-02-21T21:56:58.906Z,37.78
2023-02-21T21:59:00.348Z,35.25
2023-02-21T22:01:07.823Z,34.85
2023-02-21T22:03:15.551Z,35.17
2023-02-21T22:05:36.088Z,37.30
2023-02-21T22:07:37.524Z,35.22
2023-02-21T22:09:41.985Z,31.55
2023-02-21T22:11:47.283Z,37.00
2023-02-21T22:13:51.411Z,36.22
2023-02-21T22:16:13.201Z,42.35
2023-02-21T22:18:33.224Z,47.20
2023-02-21T22:22:38.830Z,39.03
2023-02-21T22:24:43.153Z,44.35
2023-02-21T22:26:47.585Z,46.10
2023-02-21T22:28:52.305Z,42.97
2023-02-21T22:30:53.896Z,48.90
2023-02-21T22:32:58.336Z,52.65
2023-02-21T22:35:00.071Z,47.08
2023-02-21T22:37:21.211Z,54.05
2023-02-21T22:39:24.051Z,49.38
2023-02-21T22:41:30.533Z,44.03
2023-02-21T22:43:34.393Z,45.97
2023-02-21T22:45:40.024Z,48.78
2023-02-21T22:47:46.459Z,45.30
2023-02-21T22:49:49.588Z,44.65
2023-02-21T22:51:54.880Z,52.55
2023-02-21T22:54:04.448Z,47.90
2023-02-21T22:56:15.838Z,47.75
2023-02-21T22:58:22.996Z,45.63
2023-02-21T23:02:29.186Z,46.10
2023-02-21T23:04:37.643Z,47.38
2023-02-21T23:06:59.181Z,42.45
2023-02-21T23:09:12.417Z,49.65
2023-02-21T23:11:22.250Z,46.00
2023-02-21T23:13:42.617Z,48.30
2023-02-21T23:15:47.304Z,42.97
2023-02-21T23:17:49.610Z,48.80
2023-02-21T23:19:53.802Z,47.97
2023-02-21T23:21:57.650Z,45.78
2023-02-21T23:23:59.357Z,40.17
2023-02-21T23:26:00.850Z,43.50
2023-02-21T23:30:08.442Z,44.47
2023-02-21T23:32:12.814Z,47.20
2023-02-21T23:34:14.436Z,44.58
2023-02-21T23:36:22.730Z,41.33
2023-02-21T23:38:30.310Z,42.88
2023-02-21T23:40:56.354Z,43.47
2023-02-21T23:43:01.000Z,44.38
2023-02-21T23:45:07.658Z,50.47
2023-02-21T23:47:13.896Z,47.90
2023-02-21T23:49:24.433Z,48.92
2023-02-21T23:51:26.457Z,50.67
2023-02-21T23:53:28.816Z,51.15
2023-02-21T23:55:35.773Z,56.17
2023-02-21T23:57:37.290Z,59.95
2023-02-21T23:59:42.302Z,57.30
